createdAt,value
2022-12-11T00:03:50.042Z,15.65
2022-12-11T00:06:20.634Z,15.50
2022-12-11T00:08:50.916Z,15.80
2022-12-11T00:11:18.397Z,15.73
2022-12-11T00:18:40.579Z,13.77
2022-12-11T00:23:37.761Z,14.48
2022-12-11T00:26:12.163Z,15.13
2022-12-11T00:28:39.893Z,15.68
2022-12-11T00:31:11.490Z,15.30
2022-12-11T00:33:43.328Z,14.35
2022-12-11T00:36:16.716Z,16.85
2022-12-11T00:38:44.734Z,15.15
2022-12-11T00:41:12.832Z,16.08
2022-12-11T00:43:40.295Z,15.40
2022-12-11T00:46:07.879Z,16.98
2022-12-11T00:48:35.525Z,15.27
2022-12-11T00:55:57.439Z,15.70
2022-12-11T00:58:25.282Z,15.25
2022-12-11T01:03:20.958Z,15.20
2022-12-11T01:05:55.612Z,14.93
2022-12-11T01:08:23.152Z,14.45
2022-12-11T01:15:45.845Z,14.48
2022-12-11T01:18:15.667Z,15.52
2022-12-11T01:20:43.736Z,16.00
2022-12-11T01:23:13.462Z,15.95
2022-12-11T01:25:41.370Z,16.20
2022-12-11T01:28:09.813Z,15.88
2022-12-11T01:30:38.232Z,16.35
2022-12-11T01:33:05.953Z,15.57
2022-12-11T01:35:33.446Z,16.05
2022-12-11T01:40:28.322Z,15.20
2022-12-11T01:48:27.577Z,16.73
2022-12-11T01:51:05.126Z,16.13
2022-12-11T01:53:40.637Z,16.88
2022-12-11T01:56:09.197Z,17.00
2022-12-11T01:58:52.478Z,17.17
2022-12-11T02:01:32.056Z,17.88
2022-12-11T02:04:00.352Z,18.00
2022-12-11T02:06:49.044Z,18.77
2022-12-11T02:09:20.439Z,19.17
2022-12-11T02:11:58.030Z,18.00
2022-12-11T02:14:33.032Z,19.20
2022-12-11T02:17:04.962Z,18.60
2022-12-11T02:19:49.315Z,19.33
2022-12-11T02:22:48.150Z,17.90
2022-12-11T02:25:33.077Z,18.60
2022-12-11T02:28:16.471Z,20.08
2022-12-11T02:30:49.232Z,18.65
2022-12-11T02:33:19.789Z,20.45
2022-12-11T02:35:49.359Z,19.50
2022-12-11T02:38:39.576Z,18.65
2022-12-11T02:41:09.771Z,19.73
2022-12-11T02:43:38.538Z,19.60
2022-12-11T02:46:08.306Z,18.30
2022-12-11T02:48:37.380Z,20.38
2022-12-11T02:51:08.105Z,19.52
2022-12-11T02:53:41.645Z,19.80
2022-12-11T02:56:14.238Z,18.55
2022-12-11T02:59:07.367Z,18.73
2022-12-11T03:01:34.962Z,19.30
2022-12-11T03:04:02.712Z,19.65
2022-12-11T03:06:37.530Z,21.02
2022-12-11T03:09:07.114Z,19.85
2022-12-11T03:11:34.569Z,18.88
2022-12-11T03:16:43.174Z,19.02
2022-12-11T03:19:37.319Z,18.77
2022-12-11T03:22:19.018Z,18.42
2022-12-11T03:24:53.821Z,19.17
2022-12-11T03:27:30.479Z,18.65
2022-12-11T03:30:06.601Z,18.25
2022-12-11T03:32:58.241Z,18.00
2022-12-11T03:35:38.481Z,17.40
2022-12-11T03:38:16.114Z,18.05
2022-12-11T03:40:46.811Z,18.27
2022-12-11T03:43:16.394Z,18.27
2022-12-11T03:45:47.124Z,17.85
2022-12-11T03:48:17.290Z,18.17
2022-12-11T03:50:47.092Z,16.75
2022-12-11T03:53:16.316Z,16.45
2022-12-11T03:55:43.830Z,17.73
2022-12-11T04:05:45.944Z,15.60
2022-12-11T04:08:14.117Z,17.20
2022-12-11T04:10:41.964Z,17.13
2022-12-11T04:13:10.587Z,16.45
2022-12-11T04:15:40.762Z,15.68
2022-12-11T04:18:40.961Z,16.63
2022-12-11T04:21:27.777Z,16.58
2022-12-11T04:24:14.052Z,15.57
2022-12-11T04:26:46.451Z,15.37
2022-12-11T04:29:14.786Z,15.15
2022-12-11T04:31:42.303Z,15.15
2022-12-11T04:34:09.938Z,15.55
2022-12-11T04:39:06.170Z,14.63
2022-12-11T04:41:33.805Z,15.63
2022-12-11T04:44:01.544Z,13.93
2022-12-11T04:46:29.264Z,13.95
2022-12-11T04:48:57.818Z,15.23
2022-12-11T04:51:25.685Z,15.07
2022-12-11T04:53:53.347Z,14.70
2022-12-11T04:56:21.360Z,15.82
2022-12-11T04:58:50.031Z,14.55
2022-12-11T05:01:20.394Z,14.77
2022-12-11T05:03:48.779Z,14.32
2022-12-11T05:06:16.295Z,15.43
2022-12-11T05:08:45.463Z,14.88
2022-12-11T05:11:15.650Z,15.10
2022-12-11T05:13:44.316Z,15.55
2022-12-11T05:16:14.320Z,13.73
2022-12-11T05:18:42.304Z,14.35
2022-12-11T05:21:13.279Z,14.40
2022-12-11T05:23:41.925Z,14.65
2022-12-11T05:26:14.276Z,13.68
2022-12-11T05:28:42.219Z,13.23
2022-12-11T05:31:19.481Z,13.07
2022-12-11T05:36:32.572Z,13.40
2022-12-11T05:39:01.017Z,13.32
2022-12-11T05:41:31.653Z,13.93
2022-12-11T05:43:59.266Z,13.85
2022-12-11T05:48:58.429Z,14.02
2022-12-11T05:51:26.866Z,13.55
2022-12-11T05:53:56.575Z,13.65
2022-12-11T05:56:26.897Z,15.02
2022-12-11T05:58:55.737Z,14.48
2022-12-11T06:01:29.104Z,14.65
2022-12-11T06:03:57.902Z,13.70
2022-12-11T06:06:26.553Z,14.30
2022-12-11T06:08:56.175Z,13.88
2022-12-11T06:11:24.628Z,13.98
2022-12-11T06:13:53.226Z,13.77
2022-12-11T06:16:21.642Z,14.45
2022-12-11T06:18:49.376Z,13.95
2022-12-11T06:21:24.249Z,14.73
2022-12-11T06:23:53.972Z,13.52
2022-12-11T06:26:22.065Z,13.40
2022-12-11T06:28:50.668Z,14.73
2022-12-11T06:31:19.194Z,12.65
2022-12-11T06:33:47.404Z,13.45
2022-12-11T06:36:17.342Z,13.85
2022-12-11T06:38:45.548Z,14.00
2022-12-11T06:41:12.997Z,13.30
2022-12-11T06:46:10.735Z,12.40
2022-12-11T06:48:42.252Z,13.85
2022-12-11T06:51:13.024Z,12.65
2022-12-11T06:53:41.420Z,13.93
2022-12-11T06:56:12.973Z,13.10
2022-12-11T06:58:42.191Z,14.18
2022-12-11T07:01:28.489Z,15.07
2022-12-11T07:03:57.841Z,13.05
2022-12-11T07:06:26.992Z,13.45
2022-12-11T07:08:54.929Z,14.23
2022-12-11T07:11:23.205Z,14.90
2022-12-11T07:13:50.693Z,14.30
2022-12-11T07:18:50.637Z,12.75
2022-12-11T07:21:20.243Z,14.20
2022-12-11T07:23:50.282Z,13.48
2022-12-11T07:26:20.951Z,13.43
2022-12-11T07:28:49.044Z,13.45
2022-12-11T07:31:23.367Z,13.75
2022-12-11T07:33:55.398Z,14.30
2022-12-11T07:36:23.987Z,14.65
2022-12-11T07:38:51.954Z,14.18
2022-12-11T07:41:19.927Z,13.80
2022-12-11T07:43:54.455Z,13.05
2022-12-11T07:46:25.215Z,14.25
2022-12-11T07:48:53.345Z,14.02
2022-12-11T07:51:26.657Z,13.65
2022-12-11T07:53:56.426Z,12.75
2022-12-11T07:56:24.031Z,15.27
2022-12-11T07:58:51.800Z,14.32
2022-12-11T08:01:28.118Z,13.38
2022-12-11T08:03:56.287Z,15.48
2022-12-11T08:06:29.647Z,15.20
2022-12-11T08:08:58.547Z,14.25
2022-12-11T08:11:26.855Z,14.90
2022-12-11T08:13:54.861Z,14.55
2022-12-11T08:16:23.368Z,14.63
2022-12-11T08:18:51.575Z,15.55
2022-12-11T08:21:21.954Z,14.48
2022-12-11T08:23:50.630Z,14.13
2022-12-11T08:26:21.350Z,15.45
2022-12-11T08:28:49.064Z,15.30
2022-12-11T08:31:18.233Z,13.88
2022-12-11T08:33:46.836Z,14.18
2022-12-11T08:36:18.399Z,14.77
2022-12-11T08:38:46.942Z,14.57
2022-12-11T08:41:17.063Z,15.05
2022-12-11T08:43:45.134Z,15.80
2022-12-11T08:46:13.454Z,14.40
2022-12-11T08:48:43.182Z,15.18
2022-12-11T08:51:18.621Z,14.57
2022-12-11T08:53:46.499Z,14.05
2022-12-11T08:56:16.632Z,14.20
2022-12-11T08:58:45.223Z,14.90
2022-12-11T09:01:21.721Z,14.95
2022-12-11T09:03:50.504Z,15.07
2022-12-11T09:06:20.663Z,14.40
2022-12-11T09:08:52.902Z,15.57
2022-12-11T09:11:23.779Z,15.48
2022-12-11T09:13:52.036Z,15.23
2022-12-11T09:16:22.598Z,15.02
2022-12-11T09:18:52.089Z,14.40
2022-12-11T09:21:21.983Z,16.15
2022-12-11T09:23:53.038Z,14.05
2022-12-11T09:26:21.110Z,15.70
2022-12-11T09:28:48.683Z,15.00
2022-12-11T09:31:19.331Z,15.45
2022-12-11T09:33:47.723Z,13.98
2022-12-11T09:36:15.142Z,15.65
2022-12-11T09:41:23.337Z,13.70
2022-12-11T09:44:06.029Z,15.60
2022-12-11T09:46:35.613Z,14.40
2022-12-11T09:49:09.790Z,15.43
2022-12-11T09:51:42.729Z,14.85
2022-12-11T09:54:13.585Z,15.02
2022-12-11T09:56:52.587Z,15.65
2022-12-11T09:59:25.860Z,15.85
2022-12-11T10:01:59.421Z,15.30
2022-12-11T10:04:46.054Z,15.68
2022-12-11T10:07:35.613Z,15.07
2022-12-11T10:10:23.932Z,14.23
2022-12-11T10:13:01.438Z,14.57
2022-12-11T10:15:35.567Z,14.85
2022-12-11T10:18:07.269Z,15.23
2022-12-11T10:20:39.417Z,14.35
2022-12-11T10:23:10.151Z,15.55
2022-12-11T10:25:45.011Z,15.02
2022-12-11T10:28:14.742Z,14.70
2022-12-11T10:30:57.694Z,15.82
2022-12-11T10:33:40.836Z,15.35
2022-12-11T10:36:09.961Z,15.55
2022-12-11T10:38:45.248Z,15.55
2022-12-11T10:41:18.768Z,15.30
2022-12-11T10:43:51.295Z,14.38
2022-12-11T10:46:24.933Z,15.43
2022-12-11T10:49:00.561Z,14.10
2022-12-11T10:51:30.840Z,13.80
2022-12-11T10:54:17.470Z,13.88
2022-12-11T10:56:48.558Z,13.88
2022-12-11T10:59:50.047Z,12.93
2022-12-11T11:02:40.779Z,12.90
2022-12-11T11:05:30.818Z,12.68
2022-12-11T11:08:23.979Z,12.50
2022-12-11T11:10:57.936Z,13.75
2022-12-11T11:13:33.008Z,12.98
2022-12-11T11:16:09.990Z,13.93
2022-12-11T11:18:42.525Z,13.63
2022-12-11T11:21:18.886Z,13.63
2022-12-11T11:23:51.901Z,13.05
2022-12-11T11:26:38.258Z,13.85
2022-12-11T11:29:43.321Z,14.23
2022-12-11T11:32:24.202Z,14.57
2022-12-11T11:34:51.700Z,14.27
2022-12-11T11:40:24.476Z,13.77
2022-12-11T11:43:08.034Z,13.98
2022-12-11T11:45:53.877Z,14.55
2022-12-11T11:48:53.886Z,14.10
2022-12-11T11:51:27.509Z,14.38
2022-12-11T11:53:59.659Z,14.85
2022-12-11T11:56:31.627Z,13.43
2022-12-11T11:59:13.653Z,14.07
2022-12-11T12:01:43.133Z,13.65
2022-12-11T12:04:11.854Z,13.65
2022-12-11T12:06:48.928Z,13.70
2022-12-11T12:09:32.570Z,14.18
2022-12-11T12:12:22.806Z,12.30
2022-12-11T12:14:56.400Z,13.38
2022-12-11T12:17:38.845Z,14.10
2022-12-11T12:20:28.028Z,13.30
2022-12-11T12:23:07.545Z,12.40
2022-12-11T12:26:06.272Z,13.50
2022-12-11T12:28:36.876Z,12.93
2022-12-11T12:31:26.120Z,12.57
2022-12-11T12:34:11.259Z,13.63
2022-12-11T12:37:12.347Z,13.48
2022-12-11T12:40:13.361Z,12.50
2022-12-11T12:43:08.861Z,13.48
2022-12-11T12:45:45.637Z,12.68
2022-12-11T12:48:16.367Z,12.43
2022-12-11T12:50:49.597Z,13.10
2022-12-11T12:53:27.501Z,13.30
2022-12-11T12:55:59.599Z,13.80
2022-12-11T12:58:42.158Z,13.40
2022-12-11T13:01:17.255Z,14.13
2022-12-11T13:04:05.721Z,12.60
2022-12-11T13:06:43.045Z,11.95
2022-12-11T13:11:39.738Z,12.20
2022-12-11T13:16:49.830Z,12.43
2022-12-11T13:19:23.312Z,12.25
2022-12-11T13:22:13.011Z,13.27
2022-12-11T13:24:52.297Z,13.05
2022-12-11T13:27:39.633Z,10.98
2022-12-11T13:30:28.581Z,12.13
2022-12-11T13:33:17.714Z,11.30
2022-12-11T13:35:45.790Z,11.90
2022-12-11T13:38:20.224Z,11.30
2022-12-11T13:40:53.613Z,11.25
2022-12-11T13:43:26.937Z,10.88
2022-12-11T13:46:03.366Z,10.55
2022-12-11T13:49:02.092Z,10.88
2022-12-11T13:51:31.853Z,9.82
2022-12-11T13:54:17.373Z,10.02
2022-12-11T13:57:17.755Z,10.30
2022-12-11T13:59:53.095Z,9.73
2022-12-11T14:02:33.821Z,11.07
2022-12-11T14:05:07.480Z,9.77
2022-12-11T14:07:39.169Z,10.63
2022-12-11T14:10:15.078Z,10.02
2022-12-11T14:13:07.209Z,10.52
2022-12-11T14:15:36.249Z,10.00
2022-12-11T14:18:05.585Z,10.38
2022-12-11T14:20:34.433Z,10.07
2022-12-11T14:23:16.790Z,10.57
2022-12-11T14:25:57.399Z,10.35
2022-12-11T14:28:27.977Z,10.05
2022-12-11T14:30:59.342Z,9.63
2022-12-11T14:33:37.494Z,10.60
2022-12-11T14:36:06.070Z,10.32
2022-12-11T14:38:43.605Z,10.75
2022-12-11T14:41:24.606Z,9.98
2022-12-11T14:43:56.357Z,10.15
2022-12-11T14:46:37.848Z,9.68
2022-12-11T14:49:15.825Z,9.75
2022-12-11T14:51:44.662Z,9.38
2022-12-11T14:54:27.906Z,10.40
2022-12-11T14:56:56.079Z,9.65
2022-12-11T14:59:31.444Z,8.73
2022-12-11T15:02:21.083Z,8.73
2022-12-11T15:05:03.396Z,8.38
2022-12-11T15:07:31.289Z,8.48
2022-12-11T15:09:58.649Z,8.30
2022-12-11T15:15:20.399Z,9.23
2022-12-11T15:17:53.031Z,9.52
2022-12-11T15:20:27.544Z,10.90
2022-12-11T15:23:00.175Z,10.95
2022-12-11T15:25:29.486Z,10.40
2022-12-11T15:27:59.976Z,9.85
2022-12-11T15:30:31.613Z,10.40
2022-12-11T15:33:02.509Z,10.98
2022-12-11T15:35:30.025Z,12.02
2022-12-11T15:40:27.220Z,10.80
2022-12-11T15:42:55.725Z,10.77
2022-12-11T15:45:26.109Z,10.10
2022-12-11T15:47:53.619Z,10.80
2022-12-11T15:50:23.136Z,11.15
2022-12-11T15:52:52.381Z,10.40
2022-12-11T15:55:21.347Z,10.50
2022-12-11T15:57:55.427Z,10.27
2022-12-11T16:00:24.165Z,11.88
2022-12-11T16:02:52.203Z,11.35
2022-12-11T16:05:20.075Z,11.88
2022-12-11T16:07:48.522Z,13.10
2022-12-11T16:10:18.469Z,10.38
2022-12-11T16:12:46.397Z,12.05
2022-12-11T16:15:20.116Z,11.65
2022-12-11T16:17:50.774Z,11.45
2022-12-11T16:20:18.258Z,11.73
2022-12-11T16:25:13.371Z,10.60
2022-12-11T16:27:41.113Z,11.82
2022-12-11T16:32:38.066Z,12.13
2022-12-11T16:35:05.691Z,12.82
2022-12-11T16:37:33.270Z,12.13
2022-12-11T16:44:55.605Z,11.10
2022-12-11T16:47:23.253Z,12.93
2022-12-11T16:49:51.115Z,12.30
2022-12-11T16:52:22.110Z,12.30
2022-12-11T16:54:50.102Z,12.45
2022-12-11T16:57:17.513Z,12.25
2022-12-11T17:04:40.434Z,12.20
2022-12-11T17:07:08.253Z,13.10
2022-12-11T17:09:36.242Z,13.35
2022-12-11T17:12:03.864Z,12.80
2022-12-11T17:14:31.770Z,14.57
2022-12-11T17:17:00.570Z,14.65
2022-12-11T17:19:28.018Z,13.80
2022-12-11T17:21:56.136Z,13.57
2022-12-11T17:24:23.582Z,13.35
2022-12-11T17:26:50.962Z,14.50
2022-12-11T17:31:46.189Z,14.13
2022-12-11T17:34:13.665Z,13.02
2022-12-11T17:41:35.952Z,16.55
2022-12-11T17:44:03.512Z,15.82
2022-12-11T17:49:00.213Z,15.23
2022-12-11T17:51:27.896Z,14.32
2022-12-11T17:53:56.229Z,12.43
2022-12-11T17:56:24.209Z,14.07
2022-12-11T17:58:51.967Z,13.13
2022-12-11T18:01:20.223Z,13.93
2022-12-11T18:03:47.943Z,13.38
2022-12-11T18:06:16.581Z,13.52
2022-12-11T18:08:45.762Z,14.25
2022-12-11T18:11:15.817Z,14.23
2022-12-11T18:13:44.828Z,14.13
2022-12-11T18:16:16.905Z,13.40
2022-12-11T18:18:46.404Z,14.73
2022-12-11T18:21:16.291Z,14.75
2022-12-11T18:23:44.566Z,14.40
2022-12-11T18:26:14.517Z,14.43
2022-12-11T18:28:42.883Z,16.10
2022-12-11T18:31:10.811Z,15.90
2022-12-11T18:33:40.157Z,16.63
2022-12-11T18:36:08.214Z,17.58
2022-12-11T18:38:35.773Z,17.63
2022-12-11T18:43:31.537Z,17.90
2022-12-11T18:45:59.091Z,16.88
2022-12-11T18:50:53.883Z,17.33
2022-12-11T18:58:18.939Z,18.08
2022-12-11T19:00:47.018Z,19.00
2022-12-11T19:03:14.498Z,18.70
2022-12-11T19:05:45.357Z,20.00
2022-12-11T19:08:13.965Z,18.35
2022-12-11T19:10:47.073Z,22.20
2022-12-11T19:13:14.964Z,21.75
2022-12-11T19:15:43.999Z,19.85
2022-12-11T19:18:11.585Z,20.90
2022-12-11T19:23:18.635Z,20.23
2022-12-11T19:25:47.942Z,20.88
2022-12-11T19:28:15.728Z,23.00
2022-12-11T19:30:48.858Z,20.30
2022-12-11T19:33:16.734Z,21.45
2022-12-11T19:35:44.283Z,20.00
2022-12-11T19:38:13.059Z,19.05
2022-12-11T19:40:42.603Z,19.80
2022-12-11T19:43:10.608Z,20.48
2022-12-11T19:45:38.701Z,21.00
2022-12-11T19:48:06.413Z,19.83
2022-12-11T19:50:36.436Z,20.10
2022-12-11T19:53:04.163Z,20.48
2022-12-11T19:55:31.683Z,20.33
2022-12-11T19:58:00.767Z,21.83
2022-12-11T20:00:28.578Z,21.05
2022-12-11T20:02:56.050Z,22.15
2022-12-11T20:05:23.794Z,22.50
2022-12-11T20:10:20.793Z,22.83
2022-12-11T20:12:48.428Z,23.90
2022-12-11T20:15:19.604Z,25.95
2022-12-11T20:17:56.710Z,26.73
2022-12-11T20:20:27.550Z,28.85
2022-12-11T20:23:00.249Z,31.13
2022-12-11T20:25:28.236Z,29.15
2022-12-11T20:27:55.863Z,25.20
2022-12-11T20:30:24.731Z,20.30
2022-12-11T20:32:52.745Z,15.77
2022-12-11T20:35:20.580Z,15.77
2022-12-11T20:37:47.950Z,15.45
2022-12-11T20:40:15.447Z,16.40
2022-12-11T20:42:42.887Z,14.73
2022-12-11T20:47:38.732Z,12.48
2022-12-11T20:52:34.884Z,12.60
2022-12-11T20:55:02.428Z,13.27
2022-12-11T20:57:29.954Z,14.73
2022-12-11T20:59:58.242Z,12.88
2022-12-11T21:02:25.775Z,12.23
2022-12-11T21:04:53.259Z,12.60
2022-12-11T21:19:39.296Z,12.02
2022-12-11T21:24:34.481Z,11.73
2022-12-11T21:31:57.685Z,9.98
2022-12-11T21:34:25.858Z,9.32
2022-12-11T21:36:56.933Z,9.85
2022-12-11T21:39:26.069Z,9.75
2022-12-11T21:41:53.641Z,10.38
2022-12-11T21:47:09.585Z,10.45
2022-12-11T21:52:05.226Z,9.88
2022-12-11T21:54:32.757Z,11.98
2022-12-11T21:57:00.209Z,11.35
2022-12-11T21:59:28.722Z,11.98
2022-12-11T22:01:56.759Z,11.02
2022-12-11T22:04:24.526Z,11.60
2022-12-11T22:06:52.187Z,10.07
2022-12-11T22:09:19.623Z,9.85
2022-12-11T22:14:16.423Z,10.25
2022-12-11T22:16:44.774Z,9.20
2022-12-11T22:19:12.929Z,9.35
2022-12-11T22:21:40.663Z,10.48
2022-12-11T22:24:08.407Z,9.90
2022-12-11T22:26:35.885Z,9.48
2022-12-11T22:29:03.778Z,9.35
2022-12-11T22:31:31.625Z,9.32
2022-12-11T22:33:58.982Z,9.18
2022-12-11T22:36:27.716Z,10.73
2022-12-11T22:38:55.739Z,10.27
2022-12-11T22:41:29.355Z,9.50
2022-12-11T22:43:57.388Z,10.18
2022-12-11T22:46:28.419Z,10.95
2022-12-11T22:48:56.224Z,10.63
2022-12-11T22:51:23.723Z,9.93
2022-12-11T22:56:18.490Z,9.93
2022-12-11T22:58:46.443Z,10.20
2022-12-11T23:01:18.396Z,9.38
2022-12-11T23:03:46.189Z,10.10
2022-12-11T23:06:17.498Z,9.75
2022-12-11T23:08:45.704Z,10.32
2022-12-11T23:11:16.116Z,9.90
2022-12-11T23:13:43.617Z,10.38
2022-12-11T23:18:39.544Z,9.75
2022-12-11T23:21:07.804Z,9.60
2022-12-11T23:23:35.491Z,10.10
2022-12-11T23:26:07.195Z,8.65
2022-12-11T23:28:34.705Z,8.77
2022-12-11T23:33:29.811Z,8.77
2022-12-11T23:35:58.366Z,8.38
2022-12-11T23:38:25.975Z,8.15
2022-12-11T23:43:21.092Z,8.00
2022-12-11T23:48:16.098Z,7.07
2022-12-11T23:50:44.246Z,7.78
2022-12-11T23:53:12.090Z,7.72
2022-12-11T23:55:42.267Z,7.97
2022-12-11T23:58:10.995Z,8.20
